map of DEL home
DEL - Airport
Location
City:  New Delhi, Delhi, India
Name:Indira Gandhi International Airport
Old (Alt.):Palam Airport
ICAO:VIDP
IATA:DEL

Details
Type:Airport (Aerodrome, Airfield)
Use:Public/Civil, International (customs port of entry)
Latitude:2834'07"N (28.568728)
Longitude:7706'44"E (77.112136)
Elevation:777 ft (237 m)
Variation:1.16E (WMM2015 magnetic declination)
0.06 annual change
Runways:3
Longest:14534 ft (4430 m), paved

Time
Time Zone:UTC+5:30
Local Time:

Weather
METAR:VIDP 041330Z 00000KT 2100 FU NSC 20/06 Q1019 NOSIG
TAF:VIDP 041100Z 0412/0518 32006KT 2000 FU NSC
BECMG 0500/0502 26005KT 0800 MIFG FU
BECMG 0506/0508 32010KT 2500 HZ FU
BECMG 0515/0517 26006KT 1500 FU BR

Related Locations
Nearby:
Farthest:IPC: 12034 mi / 19367 km
Easter Island (Isla de Pascua, Rapa Nui) [Mataveri Intl], VS, CL

Find:

   beyond  
but within

Other Information
Maps:
NOTAMs:
Links:
Sources:

  
flag of India   

Sectional Chart

Flight Planning
at skyvector.com

Satellite Image

Google Maps Satellite view

 

Copyright © 2004-2016 Karl L. Swartz. All rights reserved.
The Great Circle Mapper name and logo are trademarks of the Great Circle Mapper.
All other trademarks mentioned herein belong to their respective owners.
Please see credits for attibutions and further copyright information.

  Follow gcmap on Facebook Follow gcmap on Twitter Follow gcmap on Google+ GCmap on LinkedIn

hCard Microformat

Geo Microformat